Bloomington, Minnesota
Current Conditions -  °F | °C
As of 3:53 PM on Sunday 25 Jan 2015 (Local Time) from KMSP Reporting Station
Few Clouds Few Clouds  
Wind Chill: 26°   Ceiling: Unl
Heat Index: 26°   Visibility: 10mi
Dew Point: 11°   Wind: 3mph
Humidity: 53%   Direction: 70°ENE
Pressure: 30.03"   Gusts: NA
Location:  44.82°N, 93.31°W
Report Text: KMSP 252153Z 07003KT 10SM FEW250 M03/M12 A3003 RMK AO2 SLP181 T10331117
Loading
Personal Weather Stations






























Interactive Weather Map New forecast layout! Learn more

10-Day Weather Forecast

Advertisements
Track Severe Weather on mobile